Time;durP1;ratioP1;P1;durP2;ratioP2;P2;SDS_P1;SDS_P2;PMS_P1;PMS_P2;Temp;Humidity;BMP_temperature;BMP_pressure;BME280_temperature;BME280_humidity;BME280_pressure;Samples;Min_cycle;Max_cycle;Signal;HPM_P1;HPM_P2
2023/09/13 00:01:10;;;;;;;11.20;6.70;;;18.10;1.00;;;;;;4935575;29;20426;-81
2023/09/13 00:03:47;;;;;;;10.70;7.20;;;18.10;2.30;;;;;;4919031;29;20444;-80
2023/09/13 00:06:51;;;;;;;10.13;6.70;;;18.20;2.40;;;;;;4933917;29;20530;-81
2023/09/13 00:09:28;;;;;;;9.47;6.70;;;18.20;1.00;;;;;;4933435;29;20759;-81
2023/09/13 00:12:15;;;;;;;10.70;6.87;;;18.20;2.00;;;;;;4944315;29;20806;-81
2023/09/13 00:14:41;;;;;;;9.83;7.33;;;18.20;3.00;;;;;;4941234;29;20460;-82
2023/09/13 00:17:10;;;;;;;10.20;7.27;;;18.20;1.70;;;;;;4930307;29;20465;-82
2023/09/13 00:19:40;;;;;;;10.10;7.77;;;18.10;2.60;;;;;;4918790;29;20241;-81
2023/09/13 00:22:45;;;;;;;10.97;7.30;;;18.10;3.10;;;;;;4916805;29;20412;-81
2023/09/13 00:25:22;;;;;;;10.07;6.60;;;18.10;1.00;;;;;;4923766;29;20913;-81
2023/09/13 00:27:52;;;;;;;11.50;7.57;;;18.10;3.00;;;;;;4934959;29;20518;-81
2023/09/13 00:30:22;;;;;;;16.30;7.70;;;18.10;3.30;;;;;;4937738;29;20426;-81
2023/09/13 00:32:58;;;;;;;11.90;7.00;;;18.00;1.20;;;;;;4945805;29;20425;-82
2023/09/13 00:35:23;;;;;;;11.60;7.50;;;18.00;3.70;;;;;;4942391;28;20871;-81
2023/09/13 00:38:33;;;;;;;14.73;8.50;;;18.00;4.20;;;;;;4937838;29;20505;-81
2023/09/13 00:41:33;;;;;;;10.57;7.07;;;18.00;5.80;;;;;;4936796;29;20178;-82
2023/09/13 00:44:10;;;;;;;12.30;8.20;;;18.00;6.80;;;;;;4938636;29;20828;-81
2023/09/13 00:46:47;;;;;;;11.30;8.20;;;18.00;9.00;;;;;;4950606;29;20936;-81
2023/09/13 00:49:16;;;;;;;13.20;8.37;;;18.00;12.90;;;;;;4945336;29;20479;-82
2023/09/13 00:51:58;;;;;;;14.60;9.47;;;18.10;15.10;;;;;;4935926;29;20834;-81
2023/09/13 00:54:28;;;;;;;11.00;8.07;;;18.20;18.70;;;;;;4937810;29;20462;-81
2023/09/13 00:57:11;;;;;;;12.60;8.63;;;18.40;20.70;;;;;;4947272;29;20436;-81
2023/09/13 00:59:46;;;;;;;18.50;8.20;;;18.30;23.60;;;;;;4941407;29;20921;-81
2023/09/13 01:02:46;;;;;;;16.97;8.90;;;18.50;20.40;;;;;;4945568;29;20948;-82
2023/09/13 01:05:17;;;;;;;13.77;8.80;;;18.50;23.60;;;;;;4933533;29;20413;-81
2023/09/13 01:07:48;;;;;;;13.10;8.33;;;18.60;23.50;;;;;;4943848;28;20405;-81
2023/09/13 01:10:28;;;;;;;13.90;9.37;;;18.60;18.80;;;;;;4937686;29;20399;-81
2023/09/13 01:13:21;;;;;;;16.13;9.30;;;18.70;20.30;;;;;;4941933;29;20426;-81
2023/09/13 01:16:15;;;;;;;16.33;9.37;;;18.80;11.90;;;;;;4943911;29;20419;-81
2023/09/13 01:18:58;;;;;;;17.43;10.27;;;18.80;13.90;;;;;;4938416;29;20415;-81
2023/09/13 01:22:03;;;;;;;14.53;8.80;;;18.80;13.00;;;;;;4934406;29;20808;-81
2023/09/13 01:25:09;;;;;;;16.43;10.77;;;18.80;17.00;;;;;;4927133;29;20424;-81
2023/09/13 01:27:49;;;;;;;16.87;9.83;;;18.80;14.40;;;;;;4919379;29;20400;-81
2023/09/13 01:30:17;;;;;;;16.50;9.73;;;18.80;17.80;;;;;;4927762;29;20407;-81
2023/09/13 01:33:15;;;;;;;16.27;10.30;;;18.80;20.20;;;;;;4928534;29;20436;-81
2023/09/13 01:35:46;;;;;;;15.23;10.03;;;18.80;21.10;;;;;;4934657;29;20503;-81
2023/09/13 01:38:16;;;;;;;15.30;10.67;;;18.90;18.90;;;;;;4947963;29;20418;-81
2023/09/13 01:40:50;;;;;;;14.90;10.50;;;18.90;16.30;;;;;;4929849;28;20436;-81
2023/09/13 01:43:22;;;;;;;19.77;12.37;;;19.00;18.30;;;;;;4937874;29;20535;-82
2023/09/13 01:46:11;;;;;;;21.33;12.90;;;19.00;16.70;;;;;;4934687;29;20829;-81
2023/09/13 01:49:15;;;;;;;20.53;12.93;;;19.00;19.00;;;;;;4918762;29;20394;-82
2023/09/13 01:51:46;;;;;;;20.03;13.00;;;19.00;20.30;;;;;;4919314;29;20389;-81
2023/09/13 01:54:19;;;;;;;23.63;15.13;;;19.00;19.10;;;;;;4938119;29;20483;-81
2023/09/13 01:56:52;;;;;;;21.93;13.30;;;19.00;20.40;;;;;;4937375;29;20434;-81
2023/09/13 01:59:22;;;;;;;27.87;15.00;;;19.00;22.40;;;;;;4935538;29;20443;-81
2023/09/13 02:01:52;;;;;;;22.90;15.07;;;19.00;21.80;;;;;;4930376;29;20910;-81
2023/09/13 02:04:22;;;;;;;23.90;15.43;;;19.00;14.40;;;;;;4942361;29;20430;-81
2023/09/13 02:07:27;;;;;;;31.20;15.63;;;19.00;16.60;;;;;;4937415;29;20415;-81
2023/09/13 02:10:10;;;;;;;33.20;15.70;;;19.00;15.10;;;;;;4937828;29;20451;-81
2023/09/13 02:12:36;;;;;;;30.00;14.93;;;19.00;16.80;;;;;;4938484;28;20432;-81
2023/09/13 02:15:04;;;;;;;24.40;15.10;;;19.00;18.10;;;;;;4936176;29;20474;-81
2023/09/13 02:17:46;;;;;;;22.67;14.67;;;19.00;18.40;;;;;;4942726;29;20552;-81
2023/09/13 02:20:34;;;;;;;24.27;14.70;;;18.90;18.20;;;;;;4950123;29;20770;-81
2023/09/13 02:23:04;;;;;;;21.83;13.57;;;18.90;18.00;;;;;;4943365;28;20425;-81
2023/09/13 02:25:37;;;;;;;21.27;14.97;;;18.80;20.70;;;;;;4933049;29;20986;-81
2023/09/13 02:28:04;;;;;;;28.43;14.80;;;18.90;19.90;;;;;;4932714;29;20462;-81
2023/09/13 02:30:33;;;;;;;26.17;14.03;;;18.90;20.90;;;;;;4949668;29;20780;-81
2023/09/13 02:33:05;;;;;;;23.90;13.40;;;18.90;22.40;;;;;;4936889;29;20453;-81
2023/09/13 02:35:32;;;;;;;23.67;14.93;;;18.90;16.80;;;;;;4936280;29;20459;-81
2023/09/13 02:38:16;;;;;;;22.20;14.03;;;18.90;18.80;;;;;;4936906;29;20449;-81
2023/09/13 02:44:04;;;;;;;22.50;13.43;;;18.90;22.30;;;;;;4927096;29;20440;-81
2023/09/13 02:46:34;;;;;;;21.10;13.70;;;18.90;25.20;;;;;;4922306;29;20940;-82
2023/09/13 02:49:27;;;;;;;21.40;13.40;;;18.90;25.00;;;;;;4928345;29;20428;-82
2023/09/13 02:51:54;;;;;;;19.33;13.33;;;19.00;21.60;;;;;;4941212;29;20471;-82
2023/09/13 02:54:34;;;;;;;17.93;12.50;;;19.00;15.60;;;;;;4931561;29;20445;-82
2023/09/13 02:57:07;;;;;;;18.63;12.13;;;18.90;18.40;;;;;;4917686;29;20416;-81
2023/09/13 02:59:40;;;;;;;18.00;11.40;;;18.90;14.90;;;;;;4917787;29;20394;-81
2023/09/13 03:02:16;;;;;;;19.63;11.57;;;18.90;17.40;;;;;;4917041;29;20927;-81
2023/09/13 03:05:27;;;;;;;16.80;11.90;;;18.90;16.80;;;;;;4936451;29;20423;-81
2023/09/13 03:08:21;;;;;;;22.60;11.67;;;18.90;16.10;;;;;;4944375;29;20450;-81
2023/09/13 03:11:07;;;;;;;18.50;11.03;;;18.90;14.70;;;;;;4937317;29;20428;-81
2023/09/13 03:13:51;;;;;;;14.90;11.10;;;18.80;12.80;;;;;;4931975;29;20937;-81
2023/09/13 03:16:21;;;;;;;16.70;11.60;;;18.80;15.50;;;;;;4930871;29;20442;-81
2023/09/13 03:18:58;;;;;;;17.33;11.50;;;18.80;14.10;;;;;;4936420;29;20417;-81
2023/09/13 03:21:24;;;;;;;17.83;11.10;;;18.80;16.00;;;;;;4934288;29;20442;-81
2023/09/13 03:23:50;;;;;;;16.83;9.90;;;18.80;14.10;;;;;;4927611;29;20428;-82
2023/09/13 03:26:25;;;;;;;13.27;9.47;;;18.90;9.90;;;;;;4933819;29;20402;-82
2023/09/13 03:28:54;;;;;;;14.07;10.50;;;18.80;11.00;;;;;;4929682;29;20798;-81
2023/09/13 03:31:25;;;;;;;14.80;9.13;;;18.80;11.70;;;;;;4938652;29;20412;-85
2023/09/13 03:33:53;;;;;;;13.33;9.07;;;18.80;11.70;;;;;;4934642;29;20465;-85
2023/09/13 03:36:19;;;;;;;15.53;9.33;;;18.90;10.70;;;;;;4927336;29;20467;-85
2023/09/13 03:38:46;;;;;;;11.50;9.23;;;18.90;7.10;;;;;;4935783;29;20441;-85
2023/09/13 03:41:19;;;;;;;15.00;7.87;;;18.80;6.40;;;;;;4936933;29;20431;-85
2023/09/13 03:43:45;;;;;;;13.20;8.53;;;18.80;7.20;;;;;;4921711;29;20436;-87
2023/09/13 03:46:11;;;;;;;14.60;8.67;;;18.80;7.70;;;;;;4932500;29;20463;-87
2023/09/13 03:48:37;;;;;;;19.47;8.33;;;19.00;5.00;;;;;;4930061;29;20457;-85
2023/09/13 03:51:16;;;;;;;12.83;9.17;;;;;;;;;;4934367;29;20596;-86
2023/09/13 03:54:15;;;;;;;9.00;7.80;;;19.00;3.90;;;;;;4935329;29;20482;-85
2023/09/13 03:57:34;;;;;;;9.50;6.97;;;19.00;4.10;;;;;;4934470;29;20431;-86
2023/09/13 04:00:00;;;;;;;14.43;8.90;;;;;;;;;;4944608;28;20574;-86
2023/09/13 04:02:28;;;;;;;8.53;6.87;;;19.00;3.20;;;;;;4931367;29;20490;-86
2023/09/13 04:04:54;;;;;;;12.67;6.37;;;19.10;2.50;;;;;;4934635;29;20523;-85
2023/09/13 04:07:20;;;;;;;8.43;6.17;;;19.10;1.10;;;;;;4934355;29;20463;-86
2023/09/13 04:09:45;;;;;;;7.47;5.63;;;19.10;1.00;;;;;;4943874;29;20504;-86
2023/09/13 04:12:11;;;;;;;10.10;6.27;;;;;;;;;;4937992;29;20552;-86
2023/09/13 04:14:37;;;;;;;9.60;5.90;;;19.10;1.00;;;;;;4926034;29;20691;-86
2023/09/13 04:17:03;;;;;;;7.00;5.93;;;;;;;;;;4929739;29;20433;-86
2023/09/13 04:19:29;;;;;;;8.50;5.90;;;19.00;1.00;;;;;;4933085;29;20204;-86
2023/09/13 04:21:54;;;;;;;11.77;5.37;;;19.00;1.00;;;;;;4928464;29;20435;-85
2023/09/13 04:24:20;;;;;;;5.03;4.50;;;;;;;;;;4936316;29;20217;-86
2023/09/13 04:26:47;;;;;;;6.33;4.43;;;;;;;;;;4938469;29;20191;-85
2023/09/13 04:29:12;;;;;;;6.77;5.57;;;18.90;1.00;;;;;;4934066;29;20835;-86
2023/09/13 04:31:38;;;;;;;6.47;4.83;;;;;;;;;;4935058;29;20538;-86
2023/09/13 04:34:16;;;;;;;8.50;5.00;;;18.90;1.00;;;;;;4944157;29;20210;-86
2023/09/13 04:36:46;;;;;;;6.67;4.93;;;18.90;1.00;;;;;;4944863;29;20427;-86
2023/09/13 04:39:46;;;;;;;8.30;4.90;;;18.90;1.00;;;;;;4946109;29;20426;-85
2023/09/13 04:42:17;;;;;;;6.10;4.40;;;18.90;1.00;;;;;;4919670;29;20462;-86
2023/09/13 04:45:15;;;;;;;6.80;4.77;;;18.90;1.00;;;;;;4919152;29;20435;-86
2023/09/13 04:47:46;;;;;;;8.23;4.80;;;18.90;1.00;;;;;;4944296;29;20458;-85
2023/09/13 04:50:12;;;;;;;8.53;5.33;;;;;;;;;;4935985;29;21018;-86
2023/09/13 04:52:46;;;;;;;5.93;4.60;;;;;;;;;;4951076;29;20446;-86
2023/09/13 04:55:18;;;;;;;5.43;4.40;;;18.90;1.00;;;;;;4934761;29;20890;-86
2023/09/13 04:57:46;;;;;;;7.47;3.87;;;18.90;1.00;;;;;;4922556;29;20450;-86
2023/09/13 05:00:16;;;;;;;6.30;4.33;;;18.90;1.00;;;;;;4927433;29;20450;-85
2023/09/13 05:02:42;;;;;;;4.60;3.90;;;18.80;1.00;;;;;;4930972;29;20420;-85
2023/09/13 05:05:16;;;;;;;4.57;3.80;;;18.80;1.00;;;;;;4957259;29;20568;-84
2023/09/13 05:07:46;;;;;;;5.23;4.30;;;18.80;1.00;;;;;;4944191;29;20187;-85
2023/09/13 05:10:16;;;;;;;9.63;4.23;;;18.80;1.00;;;;;;4957195;29;20422;-86
2023/09/13 05:12:49;;;;;;;8.60;4.67;;;18.80;1.00;;;;;;4942037;29;20463;-87
2023/09/13 05:15:16;;;;;;;5.17;4.30;;;;;;;;;;4933732;29;20472;-86
2023/09/13 05:17:46;;;;;;;4.37;3.97;;;18.80;1.00;;;;;;4931854;29;20423;-84
2023/09/13 05:20:46;;;;;;;4.43;4.03;;;18.70;1.00;;;;;;4939247;29;20962;-84
2023/09/13 05:23:16;;;;;;;8.23;4.00;;;18.80;1.00;;;;;;4933971;29;20429;-84
2023/09/13 05:25:48;;;;;;;6.73;3.90;;;18.90;1.00;;;;;;4929233;29;20945;-83
2023/09/13 05:28:45;;;;;;;11.00;3.90;;;19.00;1.00;;;;;;4966852;28;20481;-87
2023/09/13 05:31:16;;;;;;;8.07;4.20;;;18.90;1.00;;;;;;4955491;29;20439;-86
2023/09/13 05:34:15;;;;;;;6.73;4.30;;;18.90;1.00;;;;;;4945242;29;20529;-86
2023/09/13 05:36:46;;;;;;;4.60;4.10;;;18.90;1.00;;;;;;4937725;29;20479;-86
2023/09/13 05:39:16;;;;;;;4.30;3.60;;;19.00;1.00;;;;;;4937045;29;20953;-86
2023/09/13 05:41:42;;;;;;;3.77;3.47;;;19.20;1.00;;;;;;4938266;29;20410;-85
2023/09/13 05:44:45;;;;;;;9.07;3.90;;;19.20;1.00;;;;;;4933170;29;20418;-86
2023/09/13 05:47:16;;;;;;;15.63;3.73;;;;;;;;;;4934485;29;20460;-86
2023/09/13 05:49:42;;;;;;;4.50;4.07;;;19.30;1.00;;;;;;4936274;29;20924;-86
2023/09/13 05:52:22;;;;;;;4.50;3.67;;;19.40;1.00;;;;;;4934574;29;20503;-86
2023/09/13 05:55:15;;;;;;;4.73;4.07;;;19.40;1.00;;;;;;4925263;29;20211;-86
2023/09/13 05:57:52;;;;;;;4.60;3.60;;;;;;;;;;4948314;29;20388;-84
2023/09/13 06:00:34;;;;;;;3.90;3.50;;;;;;;;;;4937680;29;20429;-84
2023/09/13 06:03:17;;;;;;;4.57;3.70;;;19.80;1.00;;;;;;4943063;29;20918;-84
2023/09/13 06:05:50;;;;;;;9.93;3.30;;;19.80;1.00;;;;;;4919629;29;20489;-84
2023/09/13 06:08:28;;;;;;;5.43;3.47;;;19.80;1.00;;;;;;4935992;29;20448;-83
2023/09/13 06:11:04;;;;;;;9.63;3.80;;;19.90;1.00;;;;;;4942492;29;20389;-84
2023/09/13 06:13:46;;;;;;;6.70;3.57;;;19.90;1.00;;;;;;4949239;29;20442;-86
2023/09/13 06:16:40;;;;;;;3.33;3.03;;;19.90;1.00;;;;;;4925470;29;20835;-86
2023/09/13 06:19:48;;;;;;;5.40;3.43;;;20.10;1.00;;;;;;4935437;29;20483;-86
2023/09/13 06:22:29;;;;;;;7.83;3.67;;;20.10;1.00;;;;;;4936562;29;20407;-86
2023/09/13 06:25:04;;;;;;;4.57;3.27;;;20.20;1.00;;;;;;4934129;29;20540;-86
2023/09/13 06:28:15;;;;;;;5.00;3.70;;;20.20;1.00;;;;;;4937949;29;20511;-84
2023/09/13 06:30:41;;;;;;;5.60;3.43;;;20.30;1.00;;;;;;4937098;29;20434;-84
2023/09/13 06:33:28;;;;;;;4.77;2.90;;;20.30;1.00;;;;;;4928172;29;20472;-86
2023/09/13 06:39:39;;;;;;;5.20;3.80;;;20.60;1.00;;;;;;4931207;29;20415;-84
2023/09/13 06:42:45;;;;;;;3.10;2.73;;;20.70;1.00;;;;;;4923611;29;20435;-84
2023/09/13 06:45:22;;;;;;;6.20;3.07;;;20.90;1.00;;;;;;4935934;29;20405;-84
2023/09/13 06:51:45;;;;;;;4.87;3.33;;;21.00;1.00;;;;;;4933442;29;20445;-85
2023/09/13 07:05:05;;;;;;;3.63;3.27;;;21.30;1.00;;;;;;4933371;29;20454;-86
2023/09/13 07:11:45;;;;;;;4.00;3.53;;;21.30;1.00;;;;;;4937244;29;20512;-86
2023/09/13 07:14:57;;;;;;;4.10;3.07;;;21.40;1.00;;;;;;4936811;29;20470;-86
2023/09/13 07:17:28;;;;;;;6.00;3.33;;;21.60;1.00;;;;;;4936919;29;20956;-86
2023/09/13 07:26:38;;;;;;;6.20;3.70;;;22.20;1.00;;;;;;4929435;29;20934;-86
2023/09/13 07:29:28;;;;;;;6.30;3.73;;;22.20;1.00;;;;;;4925487;29;20511;-86
2023/09/13 07:32:39;;;;;;;6.10;3.90;;;22.20;1.00;;;;;;4932300;29;20414;-87
2023/09/13 07:35:05;;;;;;;8.10;3.43;;;22.20;1.00;;;;;;4933374;29;20457;-86
2023/09/13 07:44:52;;;;;;;6.53;4.00;;;22.90;1.00;;;;;;4935058;29;20843;-85
2023/09/13 07:47:50;;;;;;;8.20;4.07;;;23.00;1.00;;;;;;4939536;29;20439;-85
2023/09/13 07:50:38;;;;;;;3.90;3.30;;;23.10;1.00;;;;;;4939372;29;20439;-85
2023/09/13 07:53:04;;;;;;;4.83;3.80;;;23.10;1.00;;;;;;4941804;29;20806;-85
2023/09/13 07:55:30;;;;;;;9.00;3.63;;;23.20;1.00;;;;;;4934452;29;20457;-81
2023/09/13 07:58:16;;;;;;;4.40;3.60;;;23.20;1.00;;;;;;4937153;29;20434;-82
2023/09/13 08:00:52;;;;;;;7.33;3.83;;;23.30;1.00;;;;;;4939785;29;20418;-85
2023/09/13 08:10:28;;;;;;;5.90;4.00;;;23.20;1.00;;;;;;4939940;29;20523;-88
2023/09/13 08:19:37;;;;;;;4.97;4.47;;;22.70;1.00;;;;;;4932848;29;20432;-86
2023/09/13 08:22:04;;;;;;;5.27;4.43;;;22.60;1.00;;;;;;4926862;29;20412;-87
2023/09/13 08:28:34;;;;;;;5.93;4.50;;;22.50;1.00;;;;;;4923666;29;20445;-87
2023/09/13 08:31:51;;;;;;;7.40;4.80;;;22.60;1.00;;;;;;4944164;29;20426;-86
2023/09/13 08:37:46;;;;;;;8.13;5.23;;;22.70;1.00;;;;;;4933549;29;20416;-87
2023/09/13 08:41:03;;;;;;;8.07;5.83;;;22.80;1.00;;;;;;4934654;29;20448;-88
2023/09/13 08:44:20;;;;;;;11.17;6.37;;;22.80;1.00;;;;;;4951720;29;20220;-88
2023/09/13 08:47:11;;;;;;;10.60;5.00;;;22.90;1.00;;;;;;4942346;29;20434;-85
2023/09/13 08:56:21;;;;;;;7.43;5.07;;;22.90;1.00;;;;;;4947377;29;20438;-83
2023/09/13 08:59:04;;;;;;;7.67;5.13;;;23.20;1.00;;;;;;4936260;29;20446;-82
2023/09/13 09:02:00;;;;;;;8.43;4.80;;;23.20;1.00;;;;;;4934127;29;20432;-86
2023/09/13 09:07:48;;;;;;;8.30;5.13;;;23.20;1.00;;;;;;4936483;29;20429;-87
2023/09/13 09:14:10;;;;;;;6.37;4.60;;;23.10;1.00;;;;;;4938099;29;20425;-87
2023/09/13 09:16:39;;;;;;;7.30;3.90;;;23.30;1.00;;;;;;4933971;29;20460;-86
2023/09/13 09:19:40;;;;;;;12.00;5.07;;;23.80;1.00;;;;;;4940799;29;20955;-86
2023/09/13 09:26:21;;;;;;;8.00;4.70;;;23.70;1.00;;;;;;4948206;28;20429;-86
2023/09/13 09:32:16;;;;;;;7.83;5.50;;;23.50;1.00;;;;;;4935072;29;20404;-85
2023/09/13 09:34:46;;;;;;;7.03;4.83;;;23.50;1.00;;;;;;4945179;29;20992;-83
2023/09/13 09:41:27;;;;;;;8.10;4.90;;;23.20;1.00;;;;;;4931046;29;20462;-83
2023/09/13 09:44:33;;;;;;;9.03;4.07;;;23.20;1.00;;;;;;4942842;29;20427;-82
2023/09/13 09:50:21;;;;;;;5.83;4.67;;;23.10;1.00;;;;;;4945038;29;20394;-83
2023/09/13 09:56:51;;;;;;;4.63;4.23;;;22.90;1.00;;;;;;4939312;29;20479;-85
2023/09/13 10:06:03;;;;;;;12.30;4.73;;;22.90;1.00;;;;;;4925174;29;20919;-86
2023/09/13 10:09:09;;;;;;;7.93;4.73;;;23.00;1.00;;;;;;4931258;29;20526;-83
2023/09/13 10:11:46;;;;;;;10.40;4.63;;;;;;;;;;4940807;28;20450;-84
2023/09/13 10:17:35;;;;;;;4.00;2.93;;;23.10;1.00;;;;;;4951993;29;20416;-88
2023/09/13 10:20:34;;;;;;;6.63;3.70;;;23.30;1.00;;;;;;4936707;29;20434;-87
2023/09/13 10:23:29;;;;;;;3.63;3.27;;;23.30;1.00;;;;;;4936976;29;20444;-86
2023/09/13 10:26:23;;;;;;;6.23;3.20;;;23.40;1.00;;;;;;4942481;29;20475;-87
2023/09/13 10:29:27;;;;;;;5.47;3.40;;;23.50;1.00;;;;;;4935452;29;20451;-86
2023/09/13 10:36:03;;;;;;;3.73;3.40;;;23.40;1.00;;;;;;4924728;29;20537;-85
2023/09/13 10:42:07;;;;;;;5.40;3.57;;;23.50;1.00;;;;;;4925678;29;20951;-84
2023/09/13 10:47:57;;;;;;;2.93;2.73;;;23.70;1.00;;;;;;4941430;29;20525;-85
2023/09/13 11:00:32;;;;;;;3.23;2.93;;;24.40;1.00;;;;;;4936100;29;20920;-86
2023/09/13 11:33:18;;;;;;;4.80;2.97;;;25.30;1.00;;;;;;4939089;29;20469;-83
2023/09/13 11:36:20;;;;;;;3.03;2.83;;;25.60;1.00;;;;;;4923294;29;20495;-83
2023/09/13 11:42:09;;;;;;;3.40;2.53;;;25.80;1.00;;;;;;4936813;29;20541;-83
2023/09/13 11:44:40;;;;;;;4.30;3.00;;;25.80;1.00;;;;;;4934812;29;20495;-83
2023/09/13 11:47:17;;;;;;;3.43;3.10;;;25.70;1.00;;;;;;4933157;29;21090;-84
2023/09/13 11:53:21;;;;;;;4.03;3.37;;;25.20;1.00;;;;;;4941645;29;20458;-88
2023/09/13 11:56:27;;;;;;;13.83;3.57;;;25.20;1.00;;;;;;4928972;29;20514;-87
2023/09/13 12:08:59;;;;;;;8.87;3.30;;;25.60;1.00;;;;;;4936594;29;20401;-89
2023/09/13 12:11:28;;;;;;;5.67;3.13;;;25.60;1.00;;;;;;4941555;29;20439;-89
2023/09/13 12:14:04;;;;;;;7.60;2.77;;;25.60;1.00;;;;;;4935216;29;20933;-87
2023/09/13 12:16:50;;;;;;;6.70;3.00;;;25.40;1.00;;;;;;4935640;29;20429;-88
2023/09/13 12:19:47;;;;;;;2.70;2.50;;;25.30;1.00;;;;;;4935543;29;20431;-89
2023/09/13 12:22:18;;;;;;;4.40;2.70;;;25.30;1.00;;;;;;4935169;29;20447;-89
2023/09/13 12:28:26;;;;;;;3.70;2.43;;;25.40;1.00;;;;;;4944431;29;20780;-89
2023/09/13 12:37:59;;;;;;;5.43;3.00;;;25.10;1.00;;;;;;4946273;28;21006;-90
2023/09/13 12:43:50;;;;;;;5.07;2.37;;;26.00;1.00;;;;;;4941426;29;20417;-88
2023/09/13 12:50:16;;;;;;;3.30;3.00;;;26.50;1.00;;;;;;4940350;29;20775;-87
2023/09/13 12:52:42;;;;;;;7.33;2.90;;;26.70;1.00;;;;;;4945824;29;20423;-87
2023/09/13 12:55:46;;;;;;;3.73;2.73;;;26.50;1.00;;;;;;4949846;29;20456;-88
2023/09/13 12:58:28;;;;;;;4.03;2.73;;;26.40;1.00;;;;;;4935582;29;20418;-87
2023/09/13 13:04:46;;;;;;;3.50;3.00;;;26.70;1.00;;;;;;4939541;29;20820;-87
2023/09/13 13:10:52;;;;;;;4.00;2.90;;;26.80;1.00;;;;;;4935911;29;21101;-86
2023/09/13 13:16:42;;;;;;;4.20;3.53;;;27.40;1.00;;;;;;4938929;29;20427;-85
2023/09/13 13:22:31;;;;;;;4.10;2.70;;;27.40;1.00;;;;;;4945155;29;20928;-88
2023/09/13 13:25:46;;;;;;;6.23;3.20;;;27.50;1.00;;;;;;4938634;29;20430;-88
2023/09/13 13:31:58;;;;;;;3.60;2.93;;;27.40;1.00;;;;;;4942775;28;20430;-88
2023/09/13 13:35:10;;;;;;;5.30;3.80;;;27.60;1.00;;;;;;4952095;28;20496;-87
2023/09/13 13:41:11;;;;;;;11.00;2.90;;;27.30;1.00;;;;;;4936598;29;20935;-86
2023/09/13 13:50:40;;;;;;;3.20;2.40;;;27.40;1.00;;;;;;4932960;29;20462;-87
2023/09/13 13:53:34;;;;;;;4.13;2.80;;;27.20;1.00;;;;;;4960906;28;20416;-88
2023/09/13 14:02:43;;;;;;;4.80;3.00;;;26.70;1.00;;;;;;4937344;29;20425;-87
2023/09/13 14:12:10;;;;;;;9.93;2.97;;;26.60;1.00;;;;;;4953496;28;20455;-86
2023/09/13 14:14:40;;;;;;;4.50;2.80;;;26.50;1.00;;;;;;4951768;29;20897;-86
2023/09/13 14:20:52;;;;;;;3.50;3.13;;;26.50;1.00;;;;;;4945145;29;20391;-84
2023/09/13 14:23:52;;;;;;;3.67;2.70;;;26.50;1.00;;;;;;4942413;29;20421;-84
2023/09/13 14:29:40;;;;;;;2.93;2.50;;;26.90;1.00;;;;;;4937545;29;20478;-85
2023/09/13 14:35:28;;;;;;;3.03;2.83;;;27.60;1.00;;;;;;4926429;29;20499;-87
2023/09/13 14:38:28;;;;;;;4.50;2.60;;;27.60;1.00;;;;;;4940067;29;20456;-89
2023/09/13 14:41:28;;;;;;;4.10;2.77;;;27.70;1.00;;;;;;4952411;29;20218;-86
2023/09/13 14:44:40;;;;;;;4.00;2.40;;;27.70;1.00;;;;;;4940112;29;20439;-85
2023/09/13 14:47:10;;;;;;;4.70;3.20;;;27.40;1.00;;;;;;4930215;29;20464;-84
2023/09/13 14:50:04;;;;;;;5.33;2.97;;;27.40;1.00;;;;;;4945262;29;20499;-84
2023/09/13 14:52:58;;;;;;;5.10;2.40;;;27.50;1.00;;;;;;4935734;29;20459;-86
2023/09/13 14:55:41;;;;;;;11.67;2.77;;;27.40;1.00;;;;;;4936789;29;20497;-86
2023/09/13 15:01:29;;;;;;;5.67;2.80;;;27.00;1.00;;;;;;4917524;29;20437;-88
2023/09/13 15:03:54;;;;;;;11.80;2.90;;;26.70;1.00;;;;;;4936373;29;20434;-88
2023/09/13 15:06:22;;;;;;;2.70;2.40;;;26.60;1.00;;;;;;4936118;29;20190;-86
2023/09/13 15:09:05;;;;;;;4.07;2.60;;;26.70;1.00;;;;;;4935405;29;20648;-86
2023/09/13 15:14:52;;;;;;;3.03;2.47;;;26.60;1.00;;;;;;4939928;29;20824;-86
2023/09/13 15:17:34;;;;;;;2.37;2.20;;;26.60;1.00;;;;;;4921017;29;20432;-85
2023/09/13 15:20:10;;;;;;;3.00;2.80;;;26.60;1.00;;;;;;4944747;29;20199;-84
2023/09/13 15:29:20;;;;;;;6.00;2.30;;;26.30;1.00;;;;;;4946552;29;21052;-86
2023/09/13 15:31:45;;;;;;;4.50;2.30;;;26.30;1.00;;;;;;4936112;29;20434;-85
2023/09/13 15:34:34;;;;;;;2.43;2.20;;;26.20;1.00;;;;;;4934008;29;20210;-88
2023/09/13 15:37:34;;;;;;;2.90;2.60;;;;;;;;;;4947232;29;20215;-86
2023/09/13 15:40:34;;;;;;;2.67;2.43;;;26.00;1.00;;;;;;4928528;29;20447;-86
2023/09/13 15:50:04;;;;;;;3.43;2.50;;;25.90;1.00;;;;;;4934063;29;20506;-85
2023/09/13 15:53:04;;;;;;;3.50;3.20;;;25.90;1.00;;;;;;4950509;29;20794;-85
2023/09/13 15:56:04;;;;;;;3.83;2.70;;;25.80;1.00;;;;;;4931430;29;20550;-86
2023/09/13 15:58:30;;;;;;;7.50;3.10;;;25.70;1.00;;;;;;4933897;29;20450;-86
2023/09/13 16:11:34;;;;;;;4.77;2.80;;;25.30;1.00;;;;;;4943500;29;20444;-86
2023/09/13 16:14:04;;;;;;;3.60;3.17;;;25.10;1.00;;;;;;4939897;29;20440;-84
2023/09/13 16:16:30;;;;;;;4.70;3.33;;;25.00;1.00;;;;;;4951186;29;20443;-84
2023/09/13 16:19:04;;;;;;;3.40;3.10;;;24.90;1.00;;;;;;4932220;29;20938;-85
2023/09/13 16:22:04;;;;;;;6.40;2.70;;;24.70;1.00;;;;;;4942845;29;20451;-86
2023/09/13 16:28:04;;;;;;;9.37;2.87;;;24.50;1.00;;;;;;4946176;28;20433;-86
2023/09/13 16:31:04;;;;;;;3.70;2.93;;;24.30;1.00;;;;;;4951066;29;20446;-86
2023/09/13 16:33:34;;;;;;;3.53;2.63;;;24.30;1.00;;;;;;4935410;29;20462;-83
2023/09/13 16:39:34;;;;;;;4.80;2.50;;;24.10;1.00;;;;;;4946160;29;20496;-83
2023/09/13 16:45:40;;;;;;;2.50;2.27;;;23.80;1.00;;;;;;4954864;29;20415;-86
2023/09/13 16:48:11;;;;;;;4.33;2.77;;;;;;;;;;4938594;29;20454;-85
2023/09/13 16:51:10;;;;;;;2.47;2.27;;;23.60;1.00;;;;;;4944395;29;20435;-85
2023/09/13 17:00:34;;;;;;;2.40;2.20;;;23.40;1.00;;;;;;4938346;29;20431;-89
2023/09/13 17:03:37;;;;;;;4.53;2.53;;;23.40;1.00;;;;;;4947342;29;20929;-88
2023/09/13 17:06:05;;;;;;;2.80;2.60;;;23.30;1.00;;;;;;4946908;29;20423;-88
2023/09/13 17:12:34;;;;;;;3.30;2.73;;;23.20;1.00;;;;;;4934756;29;20448;-89
2023/09/13 17:15:28;;;;;;;3.10;2.80;;;23.10;1.00;;;;;;4940597;29;20468;-86
2023/09/13 17:18:16;;;;;;;4.20;2.77;;;23.00;1.00;;;;;;4937229;29;20440;-87
2023/09/13 17:21:04;;;;;;;2.60;2.37;;;23.00;1.00;;;;;;4934693;29;20433;-87
2023/09/13 17:23:34;;;;;;;3.10;2.80;;;;;;;;;;4951460;29;20432;-87
2023/09/13 17:29:34;;;;;;;3.00;2.70;;;22.90;1.00;;;;;;4937172;29;20793;-87
2023/09/13 17:32:28;;;;;;;6.20;2.93;;;22.90;1.00;;;;;;4938189;29;20972;-88
2023/09/13 17:35:19;;;;;;;4.37;3.10;;;22.70;1.00;;;;;;4945355;29;20461;-88
2023/09/13 17:38:40;;;;;;;5.03;2.47;;;22.60;1.00;;;;;;4947018;29;20424;-88
2023/09/13 17:41:47;;;;;;;5.63;3.10;;;22.40;1.00;;;;;;4938049;29;20527;-89
2023/09/13 17:45:04;;;;;;;3.70;2.97;;;22.40;1.00;;;;;;4945346;29;20448;-88
2023/09/13 17:48:04;;;;;;;3.27;2.97;;;22.30;1.00;;;;;;4941914;28;20448;-86
2023/09/13 17:50:34;;;;;;;6.50;3.20;;;22.20;1.00;;;;;;4943353;29;20551;-89
2023/09/13 17:53:06;;;;;;;3.57;3.10;;;22.10;1.00;;;;;;4951735;29;20440;-90
2023/09/13 17:55:34;;;;;;;13.73;3.37;;;22.00;1.00;;;;;;4933433;29;20543;-91
2023/09/13 18:01:34;;;;;;;5.00;3.30;;;21.80;1.00;;;;;;4936929;29;20459;-90
2023/09/13 18:04:04;;;;;;;3.70;3.00;;;21.60;1.00;;;;;;4933966;29;20423;-87
2023/09/13 18:06:42;;;;;;;5.10;3.70;;;21.60;1.00;;;;;;4949491;29;20997;-86
2023/09/13 18:09:35;;;;;;;4.63;3.50;;;21.50;1.00;;;;;;4920953;29;20459;-87
2023/09/13 18:12:05;;;;;;;5.60;3.77;;;21.30;1.00;;;;;;4938209;29;20422;-87
2023/09/13 18:14:53;;;;;;;4.23;3.13;;;21.10;1.00;;;;;;4949475;29;20463;-85
2023/09/13 18:18:04;;;;;;;5.20;3.80;;;21.10;1.00;;;;;;4936009;29;20441;-89
2023/09/13 18:21:06;;;;;;;4.67;3.67;;;21.00;1.00;;;;;;4947468;29;20487;-89
2023/09/13 18:23:35;;;;;;;3.43;2.90;;;21.00;1.00;;;;;;4920821;29;20520;-86
2023/09/13 18:26:34;;;;;;;3.60;3.30;;;21.00;1.00;;;;;;4935915;29;20449;-86
2023/09/13 18:29:00;;;;;;;3.97;2.97;;;;;;;;;;4940538;29;20483;-84
2023/09/13 18:32:04;;;;;;;5.70;2.87;;;21.00;1.00;;;;;;4929499;29;20454;-88
2023/09/13 18:34:39;;;;;;;3.63;3.20;;;;;;;;;;4944640;29;20503;-87
2023/09/13 18:37:34;;;;;;;2.97;2.77;;;21.00;1.00;;;;;;4936225;29;21131;-88
2023/09/13 18:40:04;;;;;;;9.17;2.97;;;21.00;1.00;;;;;;4934818;29;20457;-88
2023/09/13 18:42:34;;;;;;;4.43;3.30;;;20.90;1.00;;;;;;4940605;29;20922;-91
2023/09/13 18:45:05;;;;;;;7.57;2.93;;;20.90;1.00;;;;;;4955952;29;20833;-90
2023/09/13 18:48:04;;;;;;;3.13;2.83;;;20.80;1.00;;;;;;4924737;29;20507;-91
2023/09/13 18:53:52;;;;;;;4.00;2.70;;;20.70;1.00;;;;;;4930724;29;20481;-90
2023/09/13 18:59:42;;;;;;;3.33;2.70;;;20.60;1.00;;;;;;4937528;29;20232;-93
2023/09/13 19:02:34;;;;;;;2.50;2.30;;;20.60;1.00;;;;;;4936912;29;20465;-91
2023/09/13 19:05:04;;;;;;;3.27;2.57;;;20.60;1.00;;;;;;4935217;29;20427;-90
2023/09/13 19:07:34;;;;;;;2.27;2.17;;;20.60;1.00;;;;;;4936080;29;20438;-91